sensor_id;sensor_type;location;lat;lon;timestamp;pressure;altitude;pressure_sealevel;temperature;humidity
6343;BME280;3204;42.698;23.298;2024-01-06T00:00:34;94726.19;;;7.41;91.38
6343;BME280;3204;42.698;23.298;2024-01-06T00:02:59;94729.63;;;7.46;91.75
6343;BME280;3204;42.698;23.298;2024-01-06T00:05:24;94725.38;;;7.59;91.60
6343;BME280;3204;42.698;23.298;2024-01-06T00:07:50;94717.53;;;7.44;90.95
6343;BME280;3204;42.698;23.298;2024-01-06T00:10:17;94701.47;;;7.52;90.67
6343;BME280;3204;42.698;23.298;2024-01-06T00:12:42;94699.75;;;7.24;92.30
6343;BME280;3204;42.698;23.298;2024-01-06T00:15:08;94706.63;;;7.17;92.41
6343;BME280;3204;42.698;23.298;2024-01-06T00:17:33;94725.72;;;7.20;93.24
6343;BME280;3204;42.698;23.298;2024-01-06T00:19:59;94735.19;;;7.18;93.07
6343;BME280;3204;42.698;23.298;2024-01-06T00:22:25;94737.81;;;7.23;93.14
6343;BME280;3204;42.698;23.298;2024-01-06T00:24:51;94732.41;;;7.23;92.61
6343;BME280;3204;42.698;23.298;2024-01-06T00:27:17;94725.78;;;7.34;91.83
6343;BME280;3204;42.698;23.298;2024-01-06T00:29:42;94731.63;;;7.22;92.32
6343;BME280;3204;42.698;23.298;2024-01-06T00:32:07;94729.28;;;7.16;92.73
6343;BME280;3204;42.698;23.298;2024-01-06T00:34:33;94742.78;;;7.16;93.03
6343;BME280;3204;42.698;23.298;2024-01-06T00:36:58;94734.19;;;7.14;92.88
6343;BME280;3204;42.698;23.298;2024-01-06T00:39:24;94739.19;;;7.20;92.37
6343;BME280;3204;42.698;23.298;2024-01-06T00:41:49;94736.13;;;7.27;92.18
6343;BME280;3204;42.698;23.298;2024-01-06T00:44:14;94728.94;;;7.22;92.57
6343;BME280;3204;42.698;23.298;2024-01-06T00:46:40;94727.69;;;7.15;92.24
6343;BME280;3204;42.698;23.298;2024-01-06T00:49:05;94709.31;;;7.17;92.28
6343;BME280;3204;42.698;23.298;2024-01-06T00:51:30;94712.78;;;7.36;92.42
6343;BME280;3204;42.698;23.298;2024-01-06T00:53:56;94723.31;;;7.19;92.79
6343;BME280;3204;42.698;23.298;2024-01-06T00:56:22;94715.38;;;7.09;93.43
6343;BME280;3204;42.698;23.298;2024-01-06T00:58:47;94725.66;;;7.07;92.72
6343;BME280;3204;42.698;23.298;2024-01-06T01:01:13;94718.00;;;7.14;92.94
6343;BME280;3204;42.698;23.298;2024-01-06T01:03:38;94718.59;;;7.11;92.18
6343;BME280;3204;42.698;23.298;2024-01-06T01:06:04;94702.50;;;7.06;93.13
6343;BME280;3204;42.698;23.298;2024-01-06T01:08:29;94702.50;;;7.06;93.48
6343;BME280;3204;42.698;23.298;2024-01-06T01:10:56;94715.31;;;7.14;92.03
6343;BME280;3204;42.698;23.298;2024-01-06T01:13:22;94707.81;;;7.11;92.63
6343;BME280;3204;42.698;23.298;2024-01-06T01:15:48;94720.09;;;7.17;93.06
6343;BME280;3204;42.698;23.298;2024-01-06T01:18:13;94725.09;;;7.10;92.84
6343;BME280;3204;42.698;23.298;2024-01-06T01:20:39;94719.69;;;7.10;92.84
6343;BME280;3204;42.698;23.298;2024-01-06T01:23:07;94714.63;;;7.22;91.56
6343;BME280;3204;42.698;23.298;2024-01-06T01:25:32;94703.59;;;7.05;92.23
6343;BME280;3204;42.698;23.298;2024-01-06T01:27:57;94708.44;;;7.03;92.16
6343;BME280;3204;42.698;23.298;2024-01-06T01:30:23;94701.97;;;6.85;92.82
6343;BME280;3204;42.698;23.298;2024-01-06T01:32:48;94701.31;;;7.12;92.81
6343;BME280;3204;42.698;23.298;2024-01-06T01:35:14;94703.72;;;6.95;93.50
6343;BME280;3204;42.698;23.298;2024-01-06T01:37:39;94697.97;;;6.83;92.99
6343;BME280;3204;42.698;23.298;2024-01-06T01:40:05;94700.75;;;6.78;93.33
6343;BME280;3204;42.698;23.298;2024-01-06T01:42:31;94688.06;;;6.78;93.83
6343;BME280;3204;42.698;23.298;2024-01-06T01:44:56;94684.00;;;6.81;93.71
6343;BME280;3204;42.698;23.298;2024-01-06T01:47:21;94670.00;;;6.79;93.89
6343;BME280;3204;42.698;23.298;2024-01-06T01:49:47;94672.53;;;6.89;93.70
6343;BME280;3204;42.698;23.298;2024-01-06T01:52:14;94670.81;;;6.79;93.73
6343;BME280;3204;42.698;23.298;2024-01-06T01:54:40;94668.19;;;6.74;94.20
6343;BME280;3204;42.698;23.298;2024-01-06T01:57:06;94667.16;;;6.70;94.02
6343;BME280;3204;42.698;23.298;2024-01-06T01:59:32;94671.38;;;6.76;94.07
6343;BME280;3204;42.698;23.298;2024-01-06T02:01:58;94670.28;;;6.77;94.06
6343;BME280;3204;42.698;23.298;2024-01-06T02:04:24;94674.38;;;6.75;94.12
6343;BME280;3204;42.698;23.298;2024-01-06T02:06:50;94678.16;;;6.74;93.08
6343;BME280;3204;42.698;23.298;2024-01-06T02:09:15;94667.66;;;6.72;93.30
6343;BME280;3204;42.698;23.298;2024-01-06T02:11:41;94664.75;;;6.69;93.96
6343;BME280;3204;42.698;23.298;2024-01-06T02:14:06;94650.41;;;6.73;93.38
6343;BME280;3204;42.698;23.298;2024-01-06T02:16:32;94642.31;;;6.73;94.07
6343;BME280;3204;42.698;23.298;2024-01-06T02:18:57;94648.72;;;6.77;93.69
6343;BME280;3204;42.698;23.298;2024-01-06T02:21:23;94645.47;;;6.80;93.85
6343;BME280;3204;42.698;23.298;2024-01-06T02:23:49;94648.44;;;6.79;94.09
6343;BME280;3204;42.698;23.298;2024-01-06T02:26:15;94634.22;;;6.73;93.45
6343;BME280;3204;42.698;23.298;2024-01-06T02:28:41;94630.47;;;6.74;93.56
6343;BME280;3204;42.698;23.298;2024-01-06T02:31:06;94619.69;;;6.74;94.52
6343;BME280;3204;42.698;23.298;2024-01-06T02:33:31;94622.88;;;6.76;93.80
6343;BME280;3204;42.698;23.298;2024-01-06T02:35:57;94620.19;;;6.76;93.72
6343;BME280;3204;42.698;23.298;2024-01-06T02:38:22;94612.63;;;6.78;94.15
6343;BME280;3204;42.698;23.298;2024-01-06T02:40:48;94616.91;;;6.79;93.42
6343;BME280;3204;42.698;23.298;2024-01-06T02:43:13;94609.44;;;6.90;93.39
6343;BME280;3204;42.698;23.298;2024-01-06T02:45:38;94614.34;;;6.88;93.44
6343;BME280;3204;42.698;23.298;2024-01-06T02:48:04;94615.59;;;6.77;93.58
6343;BME280;3204;42.698;23.298;2024-01-06T02:50:30;94623.09;;;6.80;93.99
6343;BME280;3204;42.698;23.298;2024-01-06T02:52:55;94616.63;;;6.81;93.99
6343;BME280;3204;42.698;23.298;2024-01-06T02:55:20;94609.84;;;6.83;93.60
6343;BME280;3204;42.698;23.298;2024-01-06T02:57:46;94600.94;;;6.83;93.94
6343;BME280;3204;42.698;23.298;2024-01-06T03:00:11;94602.38;;;6.94;93.57
6343;BME280;3204;42.698;23.298;2024-01-06T03:02:38;94594.97;;;6.86;93.72
6343;BME280;3204;42.698;23.298;2024-01-06T03:05:07;94588.41;;;6.92;93.19
6343;BME280;3204;42.698;23.298;2024-01-06T03:07:33;94595.75;;;6.86;94.33
6343;BME280;3204;42.698;23.298;2024-01-06T03:09:58;94598.16;;;6.88;94.52
6343;BME280;3204;42.698;23.298;2024-01-06T03:12:23;94593.78;;;6.92;93.76
6343;BME280;3204;42.698;23.298;2024-01-06T03:14:49;94587.59;;;6.91;94.82
6343;BME280;3204;42.698;23.298;2024-01-06T03:17:14;94595.59;;;6.96;93.92
6343;BME280;3204;42.698;23.298;2024-01-06T03:19:40;94587.00;;;6.94;94.04
6343;BME280;3204;42.698;23.298;2024-01-06T03:22:05;94586.81;;;6.91;93.29
6343;BME280;3204;42.698;23.298;2024-01-06T03:24:30;94584.13;;;6.91;93.38
6343;BME280;3204;42.698;23.298;2024-01-06T03:26:56;94583.00;;;6.92;93.64
6343;BME280;3204;42.698;23.298;2024-01-06T03:29:22;94587.38;;;6.88;93.48
6343;BME280;3204;42.698;23.298;2024-01-06T03:31:47;94582.38;;;6.81;93.11
6343;BME280;3204;42.698;23.298;2024-01-06T03:34:13;94578.75;;;6.72;93.39
6343;BME280;3204;42.698;23.298;2024-01-06T03:36:39;94580.41;;;6.68;93.70
6343;BME280;3204;42.698;23.298;2024-01-06T03:39:04;94572.97;;;6.79;93.27
6343;BME280;3204;42.698;23.298;2024-01-06T03:41:30;94572.47;;;6.77;93.08
6343;BME280;3204;42.698;23.298;2024-01-06T03:43:56;94573.34;;;6.72;93.72
6343;BME280;3204;42.698;23.298;2024-01-06T03:46:22;94574.00;;;6.83;93.23
6343;BME280;3204;42.698;23.298;2024-01-06T03:48:47;94583.09;;;6.68;94.00
6343;BME280;3204;42.698;23.298;2024-01-06T03:51:12;94589.31;;;6.69;93.87
6343;BME280;3204;42.698;23.298;2024-01-06T03:53:38;94584.41;;;6.71;93.42
6343;BME280;3204;42.698;23.298;2024-01-06T03:56:05;94574.81;;;6.65;94.10
6343;BME280;3204;42.698;23.298;2024-01-06T03:58:30;94570.63;;;6.59;94.67
6343;BME280;3204;42.698;23.298;2024-01-06T04:00:56;94572.28;;;6.55;94.86
6343;BME280;3204;42.698;23.298;2024-01-06T04:03:21;94573.31;;;6.59;94.46
6343;BME280;3204;42.698;23.298;2024-01-06T04:05:47;94570.03;;;6.62;94.41
6343;BME280;3204;42.698;23.298;2024-01-06T04:08:12;94574.31;;;6.63;94.94
6343;BME280;3204;42.698;23.298;2024-01-06T04:10:38;94572.78;;;6.75;94.02
6343;BME280;3204;42.698;23.298;2024-01-06T04:13:04;94575.25;;;6.72;93.84
6343;BME280;3204;42.698;23.298;2024-01-06T04:15:29;94564.16;;;6.73;94.03
6343;BME280;3204;42.698;23.298;2024-01-06T04:17:54;94570.44;;;6.69;94.50
6343;BME280;3204;42.698;23.298;2024-01-06T04:20:21;94577.72;;;6.68;93.93
6343;BME280;3204;42.698;23.298;2024-01-06T04:22:47;94572.66;;;6.67;94.01
6343;BME280;3204;42.698;23.298;2024-01-06T04:25:12;94556.63;;;6.57;94.25
6343;BME280;3204;42.698;23.298;2024-01-06T04:27:38;94564.34;;;6.63;94.56
6343;BME280;3204;42.698;23.298;2024-01-06T04:30:03;94581.88;;;6.61;94.58
6343;BME280;3204;42.698;23.298;2024-01-06T04:32:29;94584.56;;;6.61;94.34
6343;BME280;3204;42.698;23.298;2024-01-06T04:34:54;94595.88;;;6.63;94.12
6343;BME280;3204;42.698;23.298;2024-01-06T04:37:21;94607.22;;;6.60;93.79
6343;BME280;3204;42.698;23.298;2024-01-06T04:39:47;94599.72;;;6.57;93.54
6343;BME280;3204;42.698;23.298;2024-01-06T04:42:12;94591.44;;;6.53;93.92
6343;BME280;3204;42.698;23.298;2024-01-06T04:44:38;94598.66;;;6.58;94.86
6343;BME280;3204;42.698;23.298;2024-01-06T04:47:03;94595.66;;;6.59;94.11
6343;BME280;3204;42.698;23.298;2024-01-06T04:49:29;94597.47;;;6.64;93.47
6343;BME280;3204;42.698;23.298;2024-01-06T04:51:54;94598.84;;;6.61;94.03
6343;BME280;3204;42.698;23.298;2024-01-06T04:54:21;94602.13;;;6.58;94.09
6343;BME280;3204;42.698;23.298;2024-01-06T04:56:46;94598.03;;;6.61;93.82
6343;BME280;3204;42.698;23.298;2024-01-06T04:59:11;94600.25;;;6.59;94.12
6343;BME280;3204;42.698;23.298;2024-01-06T05:01:37;94596.03;;;6.53;93.96
6343;BME280;3204;42.698;23.298;2024-01-06T05:04:02;94597.09;;;6.52;94.31
6343;BME280;3204;42.698;23.298;2024-01-06T05:06:28;94578.94;;;6.76;93.19
6343;BME280;3204;42.698;23.298;2024-01-06T05:08:53;94578.69;;;6.59;93.74
6343;BME280;3204;42.698;23.298;2024-01-06T05:11:19;94573.88;;;6.56;93.89
6343;BME280;3204;42.698;23.298;2024-01-06T05:13:44;94576.22;;;6.44;94.72
6343;BME280;3204;42.698;23.298;2024-01-06T05:16:09;94573.16;;;6.32;94.74
6343;BME280;3204;42.698;23.298;2024-01-06T05:18:35;94573.38;;;6.35;94.54
6343;BME280;3204;42.698;23.298;2024-01-06T05:21:01;94580.81;;;6.43;93.28
6343;BME280;3204;42.698;23.298;2024-01-06T05:23:27;94572.53;;;6.40;93.52
6343;BME280;3204;42.698;23.298;2024-01-06T05:25:52;94566.47;;;6.29;93.80
6343;BME280;3204;42.698;23.298;2024-01-06T05:28:17;94554.25;;;6.37;94.20
6343;BME280;3204;42.698;23.298;2024-01-06T05:30:43;94547.25;;;6.36;94.19
6343;BME280;3204;42.698;23.298;2024-01-06T05:33:12;94557.38;;;6.25;94.47
6343;BME280;3204;42.698;23.298;2024-01-06T05:35:41;94548.44;;;6.30;93.79
6343;BME280;3204;42.698;23.298;2024-01-06T05:38:06;94550.91;;;6.26;93.29
6343;BME280;3204;42.698;23.298;2024-01-06T05:40:32;94549.22;;;6.30;92.80
6343;BME280;3204;42.698;23.298;2024-01-06T05:42:57;94545.06;;;6.38;93.59
6343;BME280;3204;42.698;23.298;2024-01-06T05:45:23;94554.47;;;6.40;92.81
6343;BME280;3204;42.698;23.298;2024-01-06T05:47:48;94560.06;;;6.44;92.89
6343;BME280;3204;42.698;23.298;2024-01-06T05:50:17;94543.31;;;6.47;92.24
6343;BME280;3204;42.698;23.298;2024-01-06T05:52:43;94558.69;;;6.46;91.93
6343;BME280;3204;42.698;23.298;2024-01-06T05:55:08;94556.50;;;6.48;91.88
6343;BME280;3204;42.698;23.298;2024-01-06T05:57:34;94549.13;;;6.54;88.93
6343;BME280;3204;42.698;23.298;2024-01-06T06:00:00;94555.25;;;6.41;88.11
6343;BME280;3204;42.698;23.298;2024-01-06T06:02:25;94538.00;;;6.42;86.93
6343;BME280;3204;42.698;23.298;2024-01-06T06:04:51;94550.31;;;6.48;87.21
6343;BME280;3204;42.698;23.298;2024-01-06T06:07:17;94553.59;;;6.45;86.80
6343;BME280;3204;42.698;23.298;2024-01-06T06:09:43;94542.53;;;6.46;86.91
6343;BME280;3204;42.698;23.298;2024-01-06T06:12:08;94541.91;;;6.49;86.84
6343;BME280;3204;42.698;23.298;2024-01-06T06:14:34;94544.25;;;6.56;87.32
6343;BME280;3204;42.698;23.298;2024-01-06T06:16:59;94539.66;;;6.56;87.58
6343;BME280;3204;42.698;23.298;2024-01-06T06:19:24;94543.75;;;6.54;87.48
6343;BME280;3204;42.698;23.298;2024-01-06T06:21:50;94553.44;;;6.55;87.76
6343;BME280;3204;42.698;23.298;2024-01-06T06:24:15;94545.78;;;6.62;87.49
6343;BME280;3204;42.698;23.298;2024-01-06T06:26:41;94554.38;;;6.64;87.11
6343;BME280;3204;42.698;23.298;2024-01-06T06:29:06;94557.06;;;6.64;87.57
6343;BME280;3204;42.698;23.298;2024-01-06T06:31:31;94555.97;;;6.65;87.72
6343;BME280;3204;42.698;23.298;2024-01-06T06:33:57;94556.41;;;6.72;86.85
6343;BME280;3204;42.698;23.298;2024-01-06T06:36:22;94566.53;;;6.61;87.21
6343;BME280;3204;42.698;23.298;2024-01-06T06:38:47;94564.13;;;6.60;87.37
6343;BME280;3204;42.698;23.298;2024-01-06T06:41:13;94553.91;;;6.57;88.17
6343;BME280;3204;42.698;23.298;2024-01-06T06:43:38;94566.75;;;6.65;87.63
6343;BME280;3204;42.698;23.298;2024-01-06T06:46:04;94546.75;;;6.84;87.23
6343;BME280;3204;42.698;23.298;2024-01-06T06:48:29;94555.38;;;6.49;87.56
6343;BME280;3204;42.698;23.298;2024-01-06T06:50:54;94553.47;;;6.36;87.90
6343;BME280;3204;42.698;23.298;2024-01-06T06:53:20;94564.66;;;6.43;88.29
6343;BME280;3204;42.698;23.298;2024-01-06T06:55:46;94558.91;;;6.50;88.53
6343;BME280;3204;42.698;23.298;2024-01-06T06:58:12;94552.41;;;6.69;88.37
6343;BME280;3204;42.698;23.298;2024-01-06T07:00:38;94562.16;;;6.65;88.29
6343;BME280;3204;42.698;23.298;2024-01-06T07:03:04;94536.34;;;6.78;87.86
6343;BME280;3204;42.698;23.298;2024-01-06T07:05:29;94550.13;;;6.76;87.38
6343;BME280;3204;42.698;23.298;2024-01-06T07:07:55;94566.56;;;6.75;88.16
6343;BME280;3204;42.698;23.298;2024-01-06T07:10:20;94558.00;;;6.73;88.19
6343;BME280;3204;42.698;23.298;2024-01-06T07:12:46;94543.91;;;6.76;87.87
6343;BME280;3204;42.698;23.298;2024-01-06T07:15:11;94560.53;;;6.83;87.83
6343;BME280;3204;42.698;23.298;2024-01-06T07:17:37;94547.63;;;6.80;87.33
6343;BME280;3204;42.698;23.298;2024-01-06T07:20:05;94578.50;;;6.87;87.66
6343;BME280;3204;42.698;23.298;2024-01-06T07:22:32;94547.06;;;6.96;87.04
6343;BME280;3204;42.698;23.298;2024-01-06T07:24:59;94549.59;;;7.06;87.14
6343;BME280;3204;42.698;23.298;2024-01-06T07:27:24;94544.59;;;7.00;87.82
6343;BME280;3204;42.698;23.298;2024-01-06T07:29:50;94554.19;;;7.06;86.71
6343;BME280;3204;42.698;23.298;2024-01-06T07:32:15;94567.16;;;7.04;86.77
6343;BME280;3204;42.698;23.298;2024-01-06T07:34:41;94549.19;;;6.99;87.60
6343;BME280;3204;42.698;23.298;2024-01-06T07:37:06;94539.72;;;7.15;87.47
6343;BME280;3204;42.698;23.298;2024-01-06T07:39:31;94542.47;;;7.29;87.04
6343;BME280;3204;42.698;23.298;2024-01-06T07:41:57;94550.41;;;7.20;87.00
6343;BME280;3204;42.698;23.298;2024-01-06T07:44:22;94541.63;;;7.15;87.59
6343;BME280;3204;42.698;23.298;2024-01-06T07:46:50;94545.53;;;7.22;87.25
6343;BME280;3204;42.698;23.298;2024-01-06T07:49:16;94546.41;;;7.18;86.72
6343;BME280;3204;42.698;23.298;2024-01-06T07:51:41;94541.03;;;7.18;87.64
6343;BME280;3204;42.698;23.298;2024-01-06T07:54:07;94550.53;;;7.29;87.70
6343;BME280;3204;42.698;23.298;2024-01-06T07:56:34;94531.19;;;7.40;85.95
6343;BME280;3204;42.698;23.298;2024-01-06T07:59:00;94550.56;;;7.42;86.07
6343;BME280;3204;42.698;23.298;2024-01-06T08:01:26;94543.94;;;7.35;86.80
6343;BME280;3204;42.698;23.298;2024-01-06T08:03:51;94549.25;;;7.40;86.98
6343;BME280;3204;42.698;23.298;2024-01-06T08:06:17;94551.56;;;7.46;87.27
6343;BME280;3204;42.698;23.298;2024-01-06T08:08:42;94546.16;;;7.60;86.37
6343;BME280;3204;42.698;23.298;2024-01-06T08:11:07;94543.84;;;7.80;84.82
6343;BME280;3204;42.698;23.298;2024-01-06T08:13:33;94542.19;;;7.71;85.44
6343;BME280;3204;42.698;23.298;2024-01-06T08:15:58;94547.25;;;7.72;85.15
6343;BME280;3204;42.698;23.298;2024-01-06T08:18:24;94560.56;;;7.69;85.64
6343;BME280;3204;42.698;23.298;2024-01-06T08:20:49;94518.97;;;7.70;84.74
6343;BME280;3204;42.698;23.298;2024-01-06T08:23:15;94543.56;;;7.41;86.77
6343;BME280;3204;42.698;23.298;2024-01-06T08:25:41;94541.75;;;7.37;86.85
6343;BME280;3204;42.698;23.298;2024-01-06T08:28:06;94528.97;;;7.42;86.43
6343;BME280;3204;42.698;23.298;2024-01-06T08:30:32;94561.34;;;7.42;86.34
6343;BME280;3204;42.698;23.298;2024-01-06T08:32:57;94523.66;;;7.51;87.37
6343;BME280;3204;42.698;23.298;2024-01-06T08:35:24;94553.53;;;7.41;87.15
6343;BME280;3204;42.698;23.298;2024-01-06T08:37:50;94534.66;;;7.41;86.35
6343;BME280;3204;42.698;23.298;2024-01-06T08:40:15;94540.56;;;7.43;86.47
6343;BME280;3204;42.698;23.298;2024-01-06T08:42:41;94556.13;;;7.32;85.83
6343;BME280;3204;42.698;23.298;2024-01-06T08:45:06;94541.75;;;7.37;86.29
6343;BME280;3204;42.698;23.298;2024-01-06T08:47:32;94556.53;;;7.39;86.80
6343;BME280;3204;42.698;23.298;2024-01-06T08:49:57;94543.38;;;7.38;86.78
6343;BME280;3204;42.698;23.298;2024-01-06T08:52:23;94538.84;;;7.47;85.55
6343;BME280;3204;42.698;23.298;2024-01-06T08:54:48;94551.47;;;7.38;86.18
6343;BME280;3204;42.698;23.298;2024-01-06T08:57:14;94524.66;;;7.55;85.38
6343;BME280;3204;42.698;23.298;2024-01-06T08:59:40;94537.38;;;7.54;85.16
6343;BME280;3204;42.698;23.298;2024-01-06T09:02:05;94529.97;;;7.60;85.27
6343;BME280;3204;42.698;23.298;2024-01-06T09:04:31;94538.88;;;7.60;85.06
6343;BME280;3204;42.698;23.298;2024-01-06T09:06:56;94527.78;;;7.62;85.13
6343;BME280;3204;42.698;23.298;2024-01-06T09:09:21;94519.59;;;7.67;85.04
6343;BME280;3204;42.698;23.298;2024-01-06T09:11:48;94518.25;;;7.78;84.25
6343;BME280;3204;42.698;23.298;2024-01-06T09:14:14;94502.66;;;7.75;84.97
6343;BME280;3204;42.698;23.298;2024-01-06T09:16:39;94511.34;;;7.85;83.60
6343;BME280;3204;42.698;23.298;2024-01-06T09:19:05;94511.16;;;7.82;83.79
6343;BME280;3204;42.698;23.298;2024-01-06T09:21:30;94500.56;;;7.85;83.45
6343;BME280;3204;42.698;23.298;2024-01-06T09:23:56;94500.16;;;7.92;82.87
6343;BME280;3204;42.698;23.298;2024-01-06T09:26:21;94511.13;;;7.95;82.09
6343;BME280;3204;42.698;23.298;2024-01-06T09:28:47;94485.16;;;7.86;81.60
6343;BME280;3204;42.698;23.298;2024-01-06T09:31:13;94482.13;;;8.01;84.49
6343;BME280;3204;42.698;23.298;2024-01-06T09:33:39;94491.13;;;7.96;80.68
6343;BME280;3204;42.698;23.298;2024-01-06T09:36:04;94488.94;;;7.85;81.19
6343;BME280;3204;42.698;23.298;2024-01-06T09:38:30;94464.75;;;7.93;81.82
6343;BME280;3204;42.698;23.298;2024-01-06T09:40:56;94471.94;;;7.98;80.61
6343;BME280;3204;42.698;23.298;2024-01-06T09:43:23;94464.94;;;7.97;81.39
6343;BME280;3204;42.698;23.298;2024-01-06T09:45:56;94464.22;;;8.05;80.33
6343;BME280;3204;42.698;23.298;2024-01-06T09:48:29;94459.03;;;8.96;96.79
6343;BME280;3204;42.698;23.298;2024-01-06T09:50:56;94446.38;;;11.52;89.15
6343;BME280;3204;42.698;23.298;2024-01-06T09:53:24;94460.47;;;13.98;78.97
6343;BME280;3204;42.698;23.298;2024-01-06T09:55:55;94448.00;;;14.61;69.64
6343;BME280;3204;42.698;23.298;2024-01-06T09:58:20;94456.22;;;14.88;67.59
6343;BME280;3204;42.698;23.298;2024-01-06T10:00:48;94447.03;;;15.67;69.82
6343;BME280;3204;42.698;23.298;2024-01-06T10:03:14;94448.25;;;16.31;62.57
6343;BME280;3204;42.698;23.298;2024-01-06T10:05:40;94439.56;;;15.21;62.15
6343;BME280;3204;42.698;23.298;2024-01-06T10:08:05;94437.75;;;14.30;60.64
6343;BME280;3204;42.698;23.298;2024-01-06T10:10:33;94428.28;;;13.20;62.74
6343;BME280;3204;42.698;23.298;2024-01-06T10:12:59;94436.53;;;12.26;65.71
6343;BME280;3204;42.698;23.298;2024-01-06T10:15:25;94423.72;;;11.48;67.67
6343;BME280;3204;42.698;23.298;2024-01-06T10:17:50;94425.94;;;11.17;68.40
6343;BME280;3204;42.698;23.298;2024-01-06T10:20:19;94403.38;;;10.70;70.57
6343;BME280;3204;42.698;23.298;2024-01-06T10:22:45;94427.66;;;10.50;70.79
6343;BME280;3204;42.698;23.298;2024-01-06T10:25:11;94404.59;;;10.27;71.92
6343;BME280;3204;42.698;23.298;2024-01-06T10:27:40;94409.03;;;10.06;72.59
6343;BME280;3204;42.698;23.298;2024-01-06T10:30:07;94385.41;;;9.89;72.77
6343;BME280;3204;42.698;23.298;2024-01-06T10:32:33;94394.97;;;9.70;74.25
6343;BME280;3204;42.698;23.298;2024-01-06T10:35:00;94381.28;;;9.75;73.97
6343;BME280;3204;42.698;23.298;2024-01-06T10:37:27;94377.25;;;9.64;74.67
6343;BME280;3204;42.698;23.298;2024-01-06T10:40:25;94383.13;;;9.49;74.37
6343;BME280;3204;42.698;23.298;2024-01-06T10:42:51;94374.03;;;9.36;74.41
6343;BME280;3204;42.698;23.298;2024-01-06T10:45:17;94379.13;;;9.38;75.18
6343;BME280;3204;42.698;23.298;2024-01-06T10:47:43;94377.41;;;9.42;75.02
6343;BME280;3204;42.698;23.298;2024-01-06T10:50:09;94354.78;;;9.46;74.66
6343;BME280;3204;42.698;23.298;2024-01-06T10:52:37;94357.34;;;9.51;73.00
6343;BME280;3204;42.698;23.298;2024-01-06T10:55:04;94351.00;;;9.56;73.41
6343;BME280;3204;42.698;23.298;2024-01-06T10:57:30;94358.00;;;9.57;72.81
6343;BME280;3204;42.698;23.298;2024-01-06T10:59:58;94339.66;;;9.54;73.34
6343;BME280;3204;42.698;23.298;2024-01-06T11:02:24;94350.50;;;9.54;72.84
6343;BME280;3204;42.698;23.298;2024-01-06T11:04:51;94324.03;;;9.51;71.96
6343;BME280;3204;42.698;23.298;2024-01-06T11:07:21;94333.78;;;9.69;72.55
6343;BME280;3204;42.698;23.298;2024-01-06T11:12:18;94319.13;;;9.61;72.94
6343;BME280;3204;42.698;23.298;2024-01-06T11:14:44;94327.91;;;9.67;73.44
6343;BME280;3204;42.698;23.298;2024-01-06T11:17:11;94329.66;;;9.63;73.77
6343;BME280;3204;42.698;23.298;2024-01-06T11:22:24;94329.00;;;9.83;72.87
6343;BME280;3204;42.698;23.298;2024-01-06T11:24:52;94323.59;;;9.83;72.78
6343;BME280;3204;42.698;23.298;2024-01-06T11:27:26;94319.91;;;9.96;72.79
6343;BME280;3204;42.698;23.298;2024-01-06T11:29:55;94295.38;;;10.01;72.49
6343;BME280;3204;42.698;23.298;2024-01-06T11:32:25;94318.50;;;10.07;71.94
6343;BME280;3204;42.698;23.298;2024-01-06T11:34:51;94289.81;;;10.23;72.13
6343;BME280;3204;42.698;23.298;2024-01-06T11:37:20;94295.66;;;10.33;71.84
6343;BME280;3204;42.698;23.298;2024-01-06T11:39:50;94291.66;;;10.31;72.49
6343;BME280;3204;42.698;23.298;2024-01-06T11:42:15;94276.69;;;10.42;71.28
6343;BME280;3204;42.698;23.298;2024-01-06T11:44:44;94262.19;;;10.38;71.28
6343;BME280;3204;42.698;23.298;2024-01-06T11:47:11;94255.00;;;10.42;71.41
6343;BME280;3204;42.698;23.298;2024-01-06T11:49:37;94269.63;;;10.41;71.33
6343;BME280;3204;42.698;23.298;2024-01-06T11:52:03;94232.44;;;10.58;71.56
6343;BME280;3204;42.698;23.298;2024-01-06T11:54:29;94260.00;;;10.60;70.86
6343;BME280;3204;42.698;23.298;2024-01-06T11:56:54;94225.06;;;10.67;71.93
6343;BME280;3204;42.698;23.298;2024-01-06T11:59:21;94241.66;;;10.57;72.17
6343;BME280;3204;42.698;23.298;2024-01-06T12:01:46;94256.94;;;10.70;72.14
6343;BME280;3204;42.698;23.298;2024-01-06T12:04:15;94223.22;;;10.80;71.05
6343;BME280;3204;42.698;23.298;2024-01-06T12:06:41;94209.69;;;10.71;72.16
6343;BME280;3204;42.698;23.298;2024-01-06T12:09:09;94219.19;;;10.86;71.73
6343;BME280;3204;42.698;23.298;2024-01-06T12:11:35;94194.16;;;10.89;71.68
6343;BME280;3204;42.698;23.298;2024-01-06T12:14:02;94216.94;;;10.88;71.71
6343;BME280;3204;42.698;23.298;2024-01-06T12:16:27;94198.50;;;10.81;71.88
6343;BME280;3204;42.698;23.298;2024-01-06T12:18:54;94190.75;;;10.92;72.18
6343;BME280;3204;42.698;23.298;2024-01-06T12:21:23;94201.81;;;10.87;71.98
6343;BME280;3204;42.698;23.298;2024-01-06T12:23:49;94206.97;;;10.80;72.74
6343;BME280;3204;42.698;23.298;2024-01-06T12:26:16;94215.59;;;11.02;71.51
6343;BME280;3204;42.698;23.298;2024-01-06T12:28:47;94208.88;;;10.79;71.91
6343;BME280;3204;42.698;23.298;2024-01-06T12:31:12;94225.31;;;10.74;72.17
6343;BME280;3204;42.698;23.298;2024-01-06T12:33:41;94216.16;;;10.58;73.61
6343;BME280;3204;42.698;23.298;2024-01-06T12:36:07;94226.72;;;10.51;72.69
6343;BME280;3204;42.698;23.298;2024-01-06T12:38:37;94216.81;;;10.55;73.91
6343;BME280;3204;42.698;23.298;2024-01-06T12:41:04;94213.78;;;10.57;72.77
6343;BME280;3204;42.698;23.298;2024-01-06T12:43:29;94197.66;;;10.60;74.23
6343;BME280;3204;42.698;23.298;2024-01-06T12:45:54;94196.84;;;10.60;73.78
6343;BME280;3204;42.698;23.298;2024-01-06T12:48:22;94196.56;;;10.53;73.81
6343;BME280;3204;42.698;23.298;2024-01-06T12:50:47;94183.19;;;10.48;74.32
6343;BME280;3204;42.698;23.298;2024-01-06T12:53:13;94174.00;;;10.40;74.85
6343;BME280;3204;42.698;23.298;2024-01-06T12:55:41;94187.59;;;10.32;75.05
6343;BME280;3204;42.698;23.298;2024-01-06T12:58:06;94172.09;;;10.32;75.55
6343;BME280;3204;42.698;23.298;2024-01-06T13:00:33;94179.41;;;10.40;75.58
6343;BME280;3204;42.698;23.298;2024-01-06T13:02:59;94188.16;;;10.46;75.62
6343;BME280;3204;42.698;23.298;2024-01-06T13:05:24;94183.75;;;10.62;74.93
6343;BME280;3204;42.698;23.298;2024-01-06T13:07:50;94186.19;;;10.84;79.97
6343;BME280;3204;42.698;23.298;2024-01-06T13:10:15;94178.78;;;11.75;77.43
6343;BME280;3204;42.698;23.298;2024-01-06T13:12:41;94189.13;;;11.93;73.23
6343;BME280;3204;42.698;23.298;2024-01-06T13:15:07;94178.25;;;11.81;72.04
6343;BME280;3204;42.698;23.298;2024-01-06T13:17:36;94177.44;;;11.81;72.55